createdAt,value
2017-09-15T00:01:50.555Z,12.20
2017-09-15T00:04:18.037Z,12.30
2017-09-15T00:06:45.520Z,12.40
2017-09-15T00:09:13.012Z,12.40
2017-09-15T00:11:40.496Z,12.50
2017-09-15T00:14:07.982Z,12.60
2017-09-15T00:16:35.465Z,12.60
2017-09-15T00:19:03.097Z,12.60
2017-09-15T00:21:31.343Z,12.60
2017-09-15T00:23:58.842Z,12.60
2017-09-15T00:26:26.321Z,12.60
2017-09-15T00:28:53.795Z,12.60
2017-09-15T00:31:21.285Z,12.60
2017-09-15T00:33:48.760Z,12.60
2017-09-15T00:36:16.240Z,12.60
2017-09-15T00:38:43.756Z,12.60
2017-09-15T00:41:11.238Z,12.70
2017-09-15T00:43:39.476Z,12.80
2017-09-15T00:46:06.953Z,12.70
2017-09-15T00:48:34.435Z,12.80
2017-09-15T00:51:01.912Z,12.80
2017-09-15T00:53:29.394Z,12.80
2017-09-15T00:55:56.872Z,12.80
2017-09-15T00:58:24.352Z,12.80
2017-09-15T01:00:52.610Z,12.60
2017-09-15T01:03:20.856Z,12.70
2017-09-15T01:05:48.324Z,12.70
2017-09-15T01:08:15.809Z,12.70
2017-09-15T01:10:44.054Z,12.60
2017-09-15T01:13:11.533Z,12.60
2017-09-15T01:15:39.026Z,12.60
2017-09-15T01:18:06.506Z,12.70
2017-09-15T01:20:33.987Z,12.70
2017-09-15T01:23:01.476Z,12.80
2017-09-15T01:25:29.726Z,12.70
2017-09-15T01:27:57.209Z,12.70
2017-09-15T01:30:24.700Z,12.70
2017-09-15T01:32:52.170Z,12.70
2017-09-15T01:35:19.689Z,12.70
2017-09-15T01:37:47.176Z,12.60
2017-09-15T01:40:14.652Z,12.60
2017-09-15T01:42:42.135Z,12.60
2017-09-15T01:45:09.619Z,12.50
2017-09-15T01:47:37.104Z,12.50
2017-09-15T01:50:04.581Z,12.40
2017-09-15T01:52:32.070Z,12.40
2017-09-15T01:55:00.330Z,12.20
2017-09-15T01:57:27.815Z,12.20
2017-09-15T01:59:56.067Z,12.10
2017-09-15T02:02:23.556Z,12.10
2017-09-15T02:04:51.036Z,12.10
2017-09-15T02:07:18.504Z,12.00
2017-09-15T02:09:45.984Z,11.90
2017-09-15T02:14:47.460Z,11.90
2017-09-15T02:17:14.967Z,11.80
2017-09-15T02:19:42.443Z,11.80
2017-09-15T02:22:09.922Z,11.70
2017-09-15T02:24:37.409Z,11.70
2017-09-15T02:27:05.661Z,11.70
2017-09-15T02:29:33.144Z,11.60
2017-09-15T02:32:01.400Z,11.60
2017-09-15T02:34:28.884Z,11.60
2017-09-15T02:36:57.133Z,11.60
2017-09-15T02:39:24.617Z,11.60
2017-09-15T02:41:52.114Z,11.60
2017-09-15T02:44:19.594Z,11.60
2017-09-15T02:46:47.067Z,11.50
2017-09-15T02:49:14.540Z,11.50
2017-09-15T02:51:42.781Z,11.40
2017-09-15T02:54:10.250Z,11.40
2017-09-15T02:56:37.723Z,11.40
2017-09-15T02:59:06.005Z,11.40
2017-09-15T03:01:34.256Z,11.40
2017-09-15T03:04:01.741Z,11.40
2017-09-15T03:06:29.991Z,11.40
2017-09-15T03:08:57.455Z,11.30
2017-09-15T03:11:24.962Z,11.40
2017-09-15T03:13:52.420Z,11.40
2017-09-15T03:16:19.907Z,11.30
2017-09-15T03:18:47.387Z,11.30
2017-09-15T03:21:14.868Z,11.30
2017-09-15T03:23:42.348Z,11.30
2017-09-15T03:26:09.831Z,11.30
2017-09-15T03:28:37.320Z,11.20
2017-09-15T03:31:05.597Z,11.20
2017-09-15T03:33:33.851Z,11.20
2017-09-15T03:36:01.335Z,11.20
2017-09-15T03:38:29.583Z,11.20
2017-09-15T03:40:57.101Z,11.20
2017-09-15T03:43:24.590Z,11.20
2017-09-15T03:45:52.076Z,11.20
2017-09-15T03:48:20.319Z,11.10
2017-09-15T03:50:47.806Z,11.00
2017-09-15T03:53:16.067Z,11.00
2017-09-15T03:55:43.543Z,11.00
2017-09-15T03:58:11.807Z,10.90
2017-09-15T04:00:39.366Z,10.90
2017-09-15T04:03:06.889Z,10.90
2017-09-15T04:05:34.359Z,10.90
2017-09-15T04:08:01.866Z,10.80
2017-09-15T04:10:30.113Z,10.80
2017-09-15T04:12:57.583Z,10.80
2017-09-15T04:15:25.831Z,10.70
2017-09-15T04:17:53.319Z,10.70
2017-09-15T04:20:21.626Z,10.60
2017-09-15T04:22:49.155Z,10.60
2017-09-15T04:25:16.636Z,10.60
2017-09-15T04:27:44.119Z,10.60
2017-09-15T04:30:11.599Z,10.60
2017-09-15T04:32:39.092Z,10.60
2017-09-15T04:35:07.360Z,10.60
2017-09-15T04:37:35.644Z,10.70
2017-09-15T04:40:03.896Z,10.80
2017-09-15T04:42:31.372Z,10.70
2017-09-15T04:44:58.879Z,10.80
2017-09-15T04:47:26.360Z,10.80
2017-09-15T04:49:53.849Z,11.00
2017-09-15T04:52:21.327Z,11.10
2017-09-15T04:54:48.815Z,11.20
2017-09-15T04:57:16.282Z,11.20
2017-09-15T04:59:43.786Z,11.20
2017-09-15T05:02:11.275Z,11.20
2017-09-15T05:04:38.753Z,11.20
2017-09-15T05:07:06.250Z,11.30
2017-09-15T05:09:34.519Z,11.20
2017-09-15T05:12:02.021Z,11.10
2017-09-15T05:14:29.536Z,11.20
2017-09-15T05:16:57.020Z,11.10
2017-09-15T05:19:24.507Z,11.10
2017-09-15T05:21:52.021Z,11.00
2017-09-15T05:24:19.523Z,11.00
2017-09-15T05:26:47.483Z,10.90
2017-09-15T05:29:14.954Z,10.90
2017-09-15T05:31:42.456Z,10.90
2017-09-15T05:34:10.106Z,10.90
2017-09-15T05:36:38.359Z,10.90
2017-09-15T05:39:05.981Z,10.90
2017-09-15T05:41:33.471Z,10.90
2017-09-15T05:44:00.986Z,10.90
2017-09-15T05:46:28.504Z,10.90
2017-09-15T05:48:55.991Z,10.90
2017-09-15T05:51:23.475Z,10.90
2017-09-15T05:53:50.983Z,10.90
2017-09-15T05:56:18.471Z,11.00
2017-09-15T05:58:45.978Z,11.10
2017-09-15T06:01:13.480Z,11.20
2017-09-15T06:03:40.966Z,11.30
2017-09-15T06:06:08.456Z,11.40
2017-09-15T06:08:35.999Z,11.40
2017-09-15T06:11:03.545Z,11.50
2017-09-15T06:13:31.036Z,11.50
2017-09-15T06:15:58.528Z,11.50
2017-09-15T06:18:26.041Z,11.50
2017-09-15T06:20:53.579Z,11.40
2017-09-15T06:23:21.066Z,11.40
2017-09-15T06:25:48.554Z,11.40
2017-09-15T06:28:16.025Z,11.40
2017-09-15T06:30:43.512Z,11.50
2017-09-15T06:33:11.005Z,11.60
2017-09-15T06:35:38.494Z,11.70
2017-09-15T06:38:05.983Z,11.80
2017-09-15T06:40:33.491Z,11.90
2017-09-15T06:43:01.000Z,11.90
2017-09-15T06:45:28.508Z,12.00
2017-09-15T06:47:56.018Z,12.10
2017-09-15T06:50:23.638Z,12.20
2017-09-15T06:52:51.145Z,12.20
2017-09-15T06:55:18.648Z,12.30
2017-09-15T06:57:46.172Z,12.30
2017-09-15T07:00:13.651Z,12.40
2017-09-15T07:02:41.160Z,12.40
2017-09-15T07:05:08.651Z,12.40
2017-09-15T07:07:36.143Z,12.40
2017-09-15T07:10:03.632Z,12.30
2017-09-15T07:12:31.154Z,12.20
2017-09-15T07:14:58.642Z,12.20
2017-09-15T07:17:26.135Z,12.20
2017-09-15T07:19:53.624Z,12.20
2017-09-15T07:22:21.123Z,12.10
2017-09-15T07:24:48.611Z,12.10
2017-09-15T07:27:16.099Z,12.10
2017-09-15T07:29:43.592Z,12.00
2017-09-15T07:32:11.111Z,12.10
2017-09-15T07:34:38.615Z,12.10
2017-09-15T07:37:06.103Z,12.10
2017-09-15T07:39:33.616Z,12.20
2017-09-15T07:42:01.119Z,12.20
2017-09-15T07:44:28.627Z,12.30
2017-09-15T07:46:56.126Z,12.40
2017-09-15T07:49:23.627Z,12.30
2017-09-15T07:51:51.111Z,12.40
2017-09-15T07:54:18.604Z,12.40
2017-09-15T07:56:46.094Z,12.50
2017-09-15T07:59:13.573Z,12.60
2017-09-15T08:01:41.087Z,12.60
2017-09-15T08:04:09.356Z,12.70
2017-09-15T08:06:36.852Z,12.70
2017-09-15T08:09:04.395Z,12.80
2017-09-15T08:11:31.932Z,12.80
2017-09-15T08:13:59.433Z,12.90
2017-09-15T08:16:27.587Z,12.90
2017-09-15T08:18:55.265Z,12.90
2017-09-15T08:21:22.762Z,12.90
2017-09-15T08:23:50.244Z,13.00
2017-09-15T08:26:17.788Z,13.10
2017-09-15T08:28:45.453Z,13.20
2017-09-15T08:31:12.932Z,13.20
2017-09-15T08:33:41.211Z,13.40
2017-09-15T08:36:09.463Z,13.40
2017-09-15T08:38:36.950Z,13.40
2017-09-15T08:41:04.447Z,13.50
2017-09-15T08:43:31.969Z,13.60
2017-09-15T08:45:59.474Z,13.70
2017-09-15T08:48:26.983Z,13.70
2017-09-15T08:50:54.479Z,13.80
2017-09-15T08:53:22.001Z,13.90
2017-09-15T08:55:49.474Z,14.00
2017-09-15T08:58:17.002Z,14.00
2017-09-15T09:00:44.514Z,14.20
2017-09-15T09:03:12.027Z,14.20
2017-09-15T09:05:39.541Z,14.30
2017-09-15T09:08:07.043Z,14.30
2017-09-15T09:10:34.560Z,14.30
2017-09-15T09:13:02.055Z,14.30
2017-09-15T09:15:30.344Z,14.40
2017-09-15T09:17:57.865Z,14.40
2017-09-15T09:20:25.385Z,14.60
2017-09-15T09:22:52.915Z,14.70
2017-09-15T09:25:21.195Z,14.90
2017-09-15T09:27:48.665Z,14.80
2017-09-15T09:30:16.150Z,14.80
2017-09-15T09:32:43.648Z,14.80
2017-09-15T09:35:11.180Z,14.80
2017-09-15T09:37:38.726Z,14.80
2017-09-15T09:40:06.245Z,14.80
2017-09-15T09:42:33.768Z,14.80
2017-09-15T09:45:01.254Z,14.80
2017-09-15T09:47:28.759Z,14.70
2017-09-15T09:49:56.303Z,14.70
2017-09-15T09:52:23.799Z,14.70
2017-09-15T09:54:51.333Z,14.80
2017-09-15T09:57:18.840Z,14.70
2017-09-15T09:59:46.349Z,14.80
2017-09-15T10:02:13.908Z,14.80
2017-09-15T10:04:41.419Z,14.80
2017-09-15T10:07:08.944Z,14.90
2017-09-15T10:09:36.437Z,14.90
2017-09-15T10:12:03.961Z,15.10
2017-09-15T10:14:31.456Z,15.40
2017-09-15T10:16:59.007Z,15.50
2017-09-15T10:19:26.572Z,15.70
2017-09-15T10:21:54.194Z,15.80
2017-09-15T10:24:21.668Z,16.00
2017-09-15T10:26:49.188Z,16.20
2017-09-15T10:29:16.715Z,16.20
2017-09-15T10:31:44.207Z,16.20
2017-09-15T10:34:11.720Z,16.20
2017-09-15T10:36:39.266Z,16.30
2017-09-15T10:39:06.788Z,16.30
2017-09-15T10:41:34.304Z,16.40
2017-09-15T10:44:01.800Z,16.40
2017-09-15T10:46:29.348Z,16.50
2017-09-15T10:48:56.850Z,16.60
2017-09-15T10:51:24.396Z,16.70
2017-09-15T10:53:51.960Z,16.80
2017-09-15T10:56:19.471Z,16.90
2017-09-15T10:58:52.605Z,17.10
2017-09-15T11:01:20.179Z,17.30
2017-09-15T11:03:47.744Z,17.50
2017-09-15T11:06:15.288Z,17.40
2017-09-15T11:08:42.797Z,17.40
2017-09-15T11:11:10.312Z,17.20
2017-09-15T11:13:37.866Z,17.20
2017-09-15T11:16:05.359Z,17.10
2017-09-15T11:18:32.885Z,17.10
2017-09-15T11:21:00.399Z,17.00
2017-09-15T11:23:27.920Z,17.10
2017-09-15T11:25:55.426Z,17.20
2017-09-15T11:28:22.928Z,17.30
2017-09-15T11:30:50.432Z,17.40
2017-09-15T11:33:18.564Z,17.50
2017-09-15T11:35:46.063Z,17.60
2017-09-15T11:38:13.575Z,17.60
2017-09-15T11:40:41.161Z,17.60
2017-09-15T11:43:08.681Z,17.50
2017-09-15T11:45:36.179Z,17.60
2017-09-15T11:48:03.696Z,17.60
2017-09-15T11:50:31.229Z,17.70
2017-09-15T11:52:58.726Z,17.70
2017-09-15T11:55:26.283Z,17.70
2017-09-15T11:57:53.831Z,17.60
2017-09-15T12:00:21.350Z,17.50
2017-09-15T12:02:48.872Z,17.50
2017-09-15T12:05:16.420Z,17.40
2017-09-15T12:07:43.931Z,17.40
2017-09-15T12:10:11.484Z,17.30
2017-09-15T12:12:39.008Z,17.30
2017-09-15T12:15:06.615Z,17.30
2017-09-15T12:17:34.128Z,17.40
2017-09-15T12:20:01.691Z,17.40
2017-09-15T12:22:29.220Z,17.50
2017-09-15T12:24:56.775Z,17.60
2017-09-15T12:27:24.324Z,17.60
2017-09-15T12:29:52.664Z,17.70
2017-09-15T12:32:20.383Z,17.70
2017-09-15T12:34:47.957Z,17.70
2017-09-15T12:37:15.484Z,17.70
2017-09-15T12:39:42.981Z,17.80
2017-09-15T12:42:10.540Z,17.70
2017-09-15T12:44:38.062Z,17.80
2017-09-15T12:47:06.344Z,18.00
2017-09-15T12:49:33.881Z,18.00
2017-09-15T12:52:01.431Z,18.10
2017-09-15T12:54:28.948Z,18.20
2017-09-15T12:56:56.468Z,18.20
2017-09-15T12:59:23.976Z,18.20
2017-09-15T13:01:51.512Z,18.20
2017-09-15T13:04:19.189Z,18.10
2017-09-15T13:06:46.711Z,18.20
2017-09-15T13:09:14.214Z,18.10
2017-09-15T13:11:41.789Z,18.10
2017-09-15T13:14:10.630Z,18.00
2017-09-15T13:16:38.254Z,18.00
2017-09-15T13:19:05.866Z,17.90
2017-09-15T13:21:34.433Z,18.10
2017-09-15T13:24:01.945Z,18.10
2017-09-15T13:26:29.498Z,18.20
2017-09-15T13:28:57.028Z,18.20
2017-09-15T13:31:24.525Z,18.20
2017-09-15T13:33:52.049Z,18.20
2017-09-15T13:36:19.567Z,18.10
2017-09-15T13:38:47.856Z,18.10
2017-09-15T13:41:15.373Z,18.10
2017-09-15T13:43:42.920Z,18.20
2017-09-15T13:46:10.430Z,18.20
2017-09-15T13:48:38.704Z,18.20
2017-09-15T13:51:06.990Z,18.20
2017-09-15T13:53:34.488Z,18.10
2017-09-15T13:56:02.016Z,18.10
2017-09-15T13:58:29.528Z,18.10
2017-09-15T14:00:57.066Z,18.10
2017-09-15T14:03:24.580Z,17.90
2017-09-15T14:05:52.122Z,17.80
2017-09-15T14:08:19.664Z,17.80
2017-09-15T14:10:47.206Z,17.80
2017-09-15T14:13:14.702Z,17.80
2017-09-15T14:15:42.996Z,17.80
2017-09-15T14:18:10.508Z,17.70
2017-09-15T14:20:38.055Z,17.70
2017-09-15T14:23:05.872Z,17.60
2017-09-15T14:25:33.467Z,17.60
2017-09-15T14:28:00.991Z,17.60
2017-09-15T14:30:28.509Z,17.60
2017-09-15T14:32:55.995Z,17.70
2017-09-15T14:35:24.273Z,18.00
2017-09-15T14:37:51.803Z,18.00
2017-09-15T14:40:19.295Z,18.00
2017-09-15T14:42:46.811Z,18.00
2017-09-15T14:45:14.327Z,17.80
2017-09-15T14:47:41.851Z,17.70
2017-09-15T14:50:09.341Z,17.70
2017-09-15T14:52:36.895Z,17.60
2017-09-15T14:55:04.447Z,17.50
2017-09-15T14:57:32.110Z,17.50
2017-09-15T14:59:59.614Z,17.50
2017-09-15T15:02:27.140Z,17.60
2017-09-15T15:04:54.661Z,17.60
2017-09-15T15:07:22.216Z,17.60
2017-09-15T15:09:49.713Z,17.70
2017-09-15T15:12:17.306Z,17.70
2017-09-15T15:14:44.828Z,17.80
2017-09-15T15:17:12.372Z,17.80
2017-09-15T15:19:39.879Z,17.80
2017-09-15T15:22:07.375Z,17.90
2017-09-15T15:24:34.872Z,17.90
2017-09-15T15:27:02.393Z,17.90
2017-09-15T15:29:30.692Z,17.80
2017-09-15T15:31:58.248Z,17.80
2017-09-15T15:34:25.780Z,17.70
2017-09-15T15:36:53.323Z,17.60
2017-09-15T15:39:20.838Z,17.40
2017-09-15T15:41:48.383Z,17.30
2017-09-15T15:44:15.928Z,17.30
2017-09-15T15:46:43.419Z,17.20
2017-09-15T15:49:10.927Z,17.30
2017-09-15T15:51:38.434Z,17.30
2017-09-15T15:54:05.972Z,17.30
2017-09-15T15:56:33.480Z,17.40
2017-09-15T15:59:00.991Z,17.40
2017-09-15T16:01:28.503Z,17.30
2017-09-15T16:03:56.021Z,17.30
2017-09-15T16:06:23.559Z,17.20
2017-09-15T16:08:51.097Z,17.00
2017-09-15T16:11:18.627Z,16.90
2017-09-15T16:13:46.192Z,16.80
2017-09-15T16:16:13.846Z,16.70
2017-09-15T16:18:41.353Z,16.70
2017-09-15T16:21:08.901Z,16.60
2017-09-15T16:23:36.400Z,16.60
2017-09-15T16:26:03.902Z,16.50
2017-09-15T16:28:31.396Z,16.50
2017-09-15T16:30:59.029Z,16.50
2017-09-15T16:33:26.531Z,16.50
2017-09-15T16:35:54.073Z,16.50
2017-09-15T16:38:27.308Z,16.50
2017-09-15T16:41:00.519Z,16.50
2017-09-15T16:43:33.680Z,16.60
2017-09-15T16:46:06.751Z,16.60
2017-09-15T17:32:19.116Z,16.60
2017-09-15T17:34:47.517Z,15.00
2017-09-15T17:37:15.570Z,14.90
2017-09-15T17:39:43.432Z,14.90
2017-09-15T17:42:11.106Z,14.80
2017-09-15T17:44:39.484Z,14.70
2017-09-15T17:47:07.156Z,14.70
2017-09-15T17:49:35.004Z,14.60
2017-09-15T17:52:03.391Z,14.50
2017-09-15T17:54:30.973Z,14.50
2017-09-15T17:56:58.514Z,14.40
2017-09-15T17:59:29.020Z,14.40
2017-09-15T18:01:56.581Z,14.30
2017-09-15T18:04:24.926Z,14.20
2017-09-15T18:06:52.428Z,14.20
2017-09-15T18:09:20.710Z,14.10
2017-09-15T18:11:48.273Z,14.10
2017-09-15T18:14:15.830Z,14.10
2017-09-15T18:16:43.531Z,14.00
2017-09-15T18:19:11.094Z,14.00
2017-09-15T18:21:38.670Z,14.00
2017-09-15T18:24:06.209Z,13.90
2017-09-15T18:26:33.762Z,13.90
2017-09-15T18:29:01.304Z,13.90
2017-09-15T18:31:29.029Z,13.90
2017-09-15T18:33:56.583Z,13.80
2017-09-15T18:36:24.098Z,13.80
2017-09-15T18:38:51.587Z,13.80
2017-09-15T18:41:19.119Z,13.80
2017-09-15T18:43:47.698Z,13.70
2017-09-15T18:46:15.270Z,13.60
2017-09-15T18:48:42.853Z,13.60
2017-09-15T18:51:10.568Z,13.60
2017-09-15T18:53:38.107Z,13.60
2017-09-15T18:56:05.628Z,13.60
2017-09-15T18:58:33.136Z,13.50
2017-09-15T19:01:00.667Z,13.50
2017-09-15T19:03:28.206Z,13.40
2017-09-15T19:05:55.819Z,13.40
2017-09-15T19:08:23.401Z,13.40
2017-09-15T19:10:50.961Z,13.40
2017-09-15T19:13:18.709Z,13.40
2017-09-15T19:15:46.232Z,13.40
2017-09-15T19:18:13.784Z,13.30
2017-09-15T19:20:41.399Z,13.30
2017-09-15T19:23:08.913Z,13.20
2017-09-15T19:25:36.488Z,13.20
2017-09-15T19:28:04.097Z,13.20
2017-09-15T19:30:31.633Z,13.20
2017-09-15T19:32:59.227Z,13.20
2017-09-15T19:35:26.738Z,13.20
2017-09-15T19:37:54.283Z,13.10
2017-09-15T19:40:21.834Z,13.10
2017-09-15T19:42:49.539Z,13.10
2017-09-15T19:45:17.138Z,13.10
2017-09-15T19:47:44.717Z,13.10
2017-09-15T19:50:12.255Z,13.00
2017-09-15T19:52:40.604Z,13.00
2017-09-15T19:55:08.126Z,13.00
2017-09-15T19:57:36.407Z,12.90
2017-09-15T20:00:03.911Z,12.90
2017-09-15T20:02:31.435Z,12.90
2017-09-15T20:04:58.939Z,12.90
2017-09-15T20:07:26.466Z,12.90
2017-09-15T20:09:53.974Z,12.90
2017-09-15T20:12:21.485Z,12.80
2017-09-15T20:14:49.003Z,12.80
2017-09-15T20:17:16.516Z,12.80
2017-09-15T20:19:44.048Z,12.70
2017-09-15T20:22:11.625Z,12.70
2017-09-15T20:24:39.152Z,12.70
2017-09-15T20:27:06.653Z,12.70
2017-09-15T20:29:34.279Z,12.70
2017-09-15T20:32:01.793Z,12.70
2017-09-15T20:34:29.526Z,12.70
2017-09-15T20:36:57.025Z,12.60
2017-09-15T20:39:25.300Z,12.60
2017-09-15T20:41:52.904Z,12.60
2017-09-15T20:44:20.672Z,12.60
2017-09-15T20:46:48.180Z,12.60
2017-09-15T20:49:15.723Z,12.50
2017-09-15T20:51:43.248Z,12.50
2017-09-15T20:54:10.752Z,12.50
2017-09-15T20:56:38.299Z,12.50
2017-09-15T20:59:06.595Z,12.40
2017-09-15T21:01:34.157Z,12.40
2017-09-15T21:04:01.657Z,12.40
2017-09-15T21:06:29.164Z,12.30
2017-09-15T21:08:56.685Z,12.30
2017-09-15T21:11:24.172Z,12.40
2017-09-15T21:13:51.752Z,12.30
2017-09-15T21:16:20.019Z,12.30
2017-09-15T21:18:47.536Z,12.20
2017-09-15T21:21:15.087Z,12.30
2017-09-15T21:23:42.599Z,12.30
2017-09-15T21:26:10.091Z,12.30
2017-09-15T21:28:37.625Z,12.30
2017-09-15T21:31:05.112Z,12.20
2017-09-15T21:33:32.626Z,12.20
2017-09-15T21:36:00.131Z,12.20
2017-09-15T21:38:27.659Z,12.20
2017-09-15T21:40:55.195Z,12.20
2017-09-15T21:43:22.728Z,12.20
2017-09-15T21:45:50.207Z,12.20
2017-09-15T21:48:18.554Z,12.10
2017-09-15T21:50:46.102Z,12.10
2017-09-15T21:53:13.611Z,12.10
2017-09-15T21:55:41.379Z,12.10
2017-09-15T21:58:08.916Z,12.10
2017-09-15T22:00:37.832Z,12.10
2017-09-15T22:03:05.359Z,12.10
2017-09-15T22:05:33.043Z,12.00
2017-09-15T22:08:00.596Z,12.00
2017-09-15T22:10:28.140Z,11.90
2017-09-15T22:12:55.852Z,11.90
2017-09-15T22:15:23.433Z,11.90
2017-09-15T22:17:50.923Z,11.90
2017-09-15T22:20:18.445Z,11.90
2017-09-15T22:22:45.955Z,11.90
2017-09-15T22:25:13.455Z,11.90
2017-09-15T22:27:41.071Z,11.90
2017-09-15T22:30:08.600Z,11.80
2017-09-15T22:32:36.198Z,11.90
2017-09-15T22:35:03.723Z,11.90
2017-09-15T22:37:31.252Z,11.90
2017-09-15T22:39:58.832Z,11.80
2017-09-15T22:42:26.331Z,11.80
2017-09-15T22:44:53.838Z,11.80
2017-09-15T22:47:21.444Z,11.80
2017-09-15T22:49:48.957Z,11.80
2017-09-15T22:52:16.514Z,11.80
2017-09-15T22:54:44.015Z,11.80
2017-09-15T22:57:11.549Z,11.80
2017-09-15T22:59:39.027Z,11.70
2017-09-15T23:02:07.306Z,11.80
2017-09-15T23:04:34.885Z,11.70
2017-09-15T23:07:02.403Z,11.70
2017-09-15T23:09:29.896Z,11.70
2017-09-15T23:11:57.403Z,11.70
2017-09-15T23:14:24.938Z,11.70
2017-09-15T23:16:52.454Z,11.60
2017-09-15T23:19:19.987Z,11.60
2017-09-15T23:21:47.491Z,11.50
2017-09-15T23:24:15.115Z,11.50
2017-09-15T23:26:42.599Z,11.40
2017-09-15T23:29:10.119Z,11.40
2017-09-15T23:31:37.607Z,11.40
2017-09-15T23:34:05.151Z,11.40
2017-09-15T23:36:32.623Z,11.40
2017-09-15T23:39:00.887Z,11.40
2017-09-15T23:41:29.135Z,11.40
2017-09-15T23:43:56.623Z,11.30
2017-09-15T23:46:24.891Z,11.40
2017-09-15T23:48:52.387Z,11.40
2017-09-15T23:51:19.875Z,11.40
2017-09-15T23:53:47.363Z,11.30
2017-09-15T23:56:14.847Z,11.30
2017-09-15T23:58:42.344Z,11.30
